Meteo Giornale » Osservazioni meteo Italia » Monte Cimone

ore: 11:55 - Osservazioni Meteo Monte Cimone
Lat. 44° 12' N Lon. 10° 42' E Alt. 2165 metri s.l.m.

sereno Europe/Rome

13 °C

Sereno

Temp. 24 Ore

11 °C

16 °C

Est/Sud-Est

14.8 Km/h

Dew point 10 °C

Umidità 81 %

Visibilità  0 Km

Il sole sorge alle ore 06:11

Il sole tramonta alle ore 20:34

Data e Ora Cielo e Fenomeni T °C DP °C Um. % Pres. hPa Vis. km Vento km/h
Oggi h: 11:55 sereno Sereno 13 10 81 1027 0 E/SE 14.8
Oggi h: 10:55 sereno Sereno 13 7 66 1027 0 SE 13
Oggi h: 09:55 sereno Sereno 12 5 62 1027 0 S/SE 18.5
Oggi h: 08:55 sereno Sereno 12 5 62 1027 0 S 16.7
Oggi h: 08:13 sereno Sereno 13 2 47 1026 0 S 20.3
Oggi h: 07:55 sereno Sereno 13 4 54 1027 0 E 13
Oggi h: 06:55 sereno Sereno 13 6 62 1027 0 O 9.3
Oggi h: 05:55 sereno Sereno 13 4 54 1026 0 N 5.5
Oggi h: 04:55 sereno Sereno 13 4 54 1026 0 O 14.8
Oggi h: 03:55 sereno Sereno 11 9 87 1026 0 N 24
Oggi h: 02:55 sereno Sereno 11 9 87 1026 0 N 29.6
Oggi h: 01:55 sereno Sereno 12 9 81 1027 0 E/NE 18.5
Oggi h: 00:55 sereno Sereno 13 8 71 1027 0 N/NE 7.4
Ieri h: 23:55 sereno Sereno 13 8 71 1027 0 NE 13
Ieri h: 22:55 sereno Sereno 13 8 71 1027 0 N/NE 13
Ieri h: 21:55 sereno Sereno 14 9 71 1027 0 N 16.7
Ieri h: 20:55 sereno Sereno 14 10 76 1027 0 N/NO 14.8
Ieri h: 19:55 sereno Sereno 15 7 58 1026 0 N 9.3
Ieri h: 18:55 sereno Sereno 16 8 58 1026 0 O/SO 11.1
Ieri h: 17:55 sereno Sereno 15 7 58 1026 0 S/SE 9.3
Ieri h: 16:55 sereno Sereno 15 7 58 1026 0 SO 14.8
Ieri h: 15:55 sereno Sereno 14 7 62 1027 0 O/NO 11.1
Ieri h: 15:25 sereno Sereno 14 8 67 1026 0 O 13
Ieri h: 14:55 sereno Sereno 14 7 62 1026 0 SE 11.1
Ieri h: 13:55 sereno Sereno 14 7 62 1027 0 S/SE 20.3
Ieri h: 12:55 sereno Sereno 14 12 87 1027 0 S/SE 11.1